Time;durP1;ratioP1;P1;durP2;ratioP2;P2;SDS_P1;SDS_P2;PMS_P1;PMS_P2;Temp;Humidity;BMP_temperature;BMP_pressure;BME280_temperature;BME280_humidity;BME280_pressure;Samples;Min_cycle;Max_cycle;Signal;HPM_P1;HPM_P2
2022/03/21 00:01:47;;;;;;;;;29.00;26.00;;;;;21.71;40.37;103493.98;110690;1258;18725;-47
2022/03/21 00:04:15;;;;;;;;;27.00;26.00;;;;;21.70;40.50;103491.48;110814;1258;19038;-48
2022/03/21 00:06:42;;;;;;;;;25.33;23.67;;;;;21.71;40.37;103490.31;110715;1258;19484;-47
2022/03/21 00:09:09;;;;;;;;;27.00;25.00;;;;;21.71;40.55;103483.95;110698;1258;18896;-49
2022/03/21 00:11:36;;;;;;;;;29.00;27.00;;;;;21.70;40.32;103486.59;110698;1258;23374;-48
2022/03/21 00:14:04;;;;;;;;;25.00;25.00;;;;;21.71;40.27;103489.02;110749;1258;19517;-49
2022/03/21 00:16:32;;;;;;;;;28.33;25.00;;;;;21.71;40.22;103487.16;110698;1258;18841;-48
2022/03/21 00:19:00;;;;;;;;;28.00;23.33;;;;;21.71;40.30;103484.67;110734;1258;19114;-48
2022/03/21 00:21:27;;;;;;;;;34.00;28.00;;;;;21.71;40.35;103484.70;110650;1258;19560;-49
2022/03/21 00:23:55;;;;;;;;;29.00;27.33;;;;;21.70;40.48;103480.53;110633;1258;21730;-47
2022/03/21 00:26:22;;;;;;;;;30.00;26.00;;;;;21.70;40.06;103478.19;110720;1258;19134;-48
2022/03/21 00:28:50;;;;;;;;;32.00;27.00;;;;;21.70;40.16;103479.09;110476;1258;19967;-49
2022/03/21 00:31:17;;;;;;;;;32.33;27.33;;;;;21.70;40.07;103481.30;110776;1258;18776;-49
2022/03/21 00:33:45;;;;;;;;;28.33;26.67;;;;;21.70;40.19;103481.65;110588;1258;19134;-48
2022/03/21 00:36:12;;;;;;;;;30.67;26.67;;;;;21.70;40.06;103478.73;110616;1258;20067;-48
2022/03/21 00:38:41;;;;;;;;;26.67;26.00;;;;;21.71;40.04;103481.25;110613;1258;19021;-49
2022/03/21 00:41:08;;;;;;;;;26.00;24.00;;;;;21.71;40.12;103487.80;110575;1258;19010;-48
2022/03/21 00:43:35;;;;;;;;;31.33;26.33;;;;;21.71;39.92;103486.51;110597;1258;22611;-47
2022/03/21 00:46:03;;;;;;;;;29.67;25.33;;;;;21.70;40.03;103488.41;110701;1257;19014;-49
2022/03/21 00:48:30;;;;;;;;;30.00;26.50;;;;;21.70;39.94;103484.04;110681;1258;22383;-49
2022/03/21 00:50:57;;;;;;;;;31.33;27.67;;;;;21.69;39.79;103482.79;110615;1258;19399;-49
2022/03/21 00:53:25;;;;;;;;;26.00;25.00;;;;;21.70;40.12;103484.94;110642;1258;18742;-47
2022/03/21 00:55:52;;;;;;;;;32.00;29.50;;;;;21.68;39.88;103489.61;110600;1258;22146;-47
2022/03/21 00:58:20;;;;;;;;;33.00;29.00;;;;;21.69;39.98;103486.66;110614;1258;19727;-47
2022/03/21 01:00:47;;;;;;;;;29.00;25.00;;;;;21.68;39.78;103489.95;110582;1258;18858;-48
2022/03/21 01:03:14;;;;;;;;;29.00;26.00;;;;;21.68;39.76;103489.42;110633;1257;19004;-49
2022/03/21 01:05:41;;;;;;;;;26.50;23.00;;;;;21.67;39.89;103486.74;110639;1258;19810;-48
2022/03/21 01:08:09;;;;;;;;;32.67;29.00;;;;;21.67;39.69;103486.45;110667;1258;18758;-47
2022/03/21 01:10:36;;;;;;;;;29.00;26.33;;;;;21.67;39.78;103487.73;110694;1258;18888;-48
2022/03/21 01:13:03;;;;;;;;;28.67;25.33;;;;;21.66;39.82;103484.02;110606;1258;19526;-48
2022/03/21 01:15:30;;;;;;;;;25.00;23.00;;;;;21.66;39.53;103481.23;110640;1258;18755;-48
2022/03/21 01:17:58;;;;;;;;;27.33;26.00;;;;;21.65;39.72;103484.38;110606;1258;18761;-49
2022/03/21 01:20:25;;;;;;;;;29.00;27.67;;;;;21.66;39.71;103484.36;110432;1258;148774;-49
2022/03/21 01:22:52;;;;;;;;;28.00;23.67;;;;;21.65;39.46;103489.30;110448;1258;18827;-49
2022/03/21 01:25:19;;;;;;;;;31.00;28.00;;;;;21.65;39.68;103489.14;110669;1258;18996;-48
2022/03/21 01:27:47;;;;;;;;;30.00;26.00;;;;;21.65;39.70;103488.96;110598;1258;21038;-48
2022/03/21 01:30:14;;;;;;;;;26.50;25.50;;;;;21.66;39.73;103485.08;110589;1258;18824;-48
2022/03/21 01:32:43;;;;;;;;;28.33;27.00;;;;;21.67;39.63;103479.91;110576;1258;21833;-49
2022/03/21 01:35:11;;;;;;;;;27.00;26.00;;;;;21.66;39.59;103479.80;110562;1258;19457;-49
2022/03/21 01:37:38;;;;;;;;;30.00;26.00;;;;;21.66;39.59;103481.25;110600;1258;19633;-48
2022/03/21 01:40:05;;;;;;;;;25.33;23.33;;;;;21.66;39.63;103482.00;110668;1258;18877;-49
2022/03/21 01:42:32;;;;;;;;;25.00;25.00;;;;;21.66;39.80;103479.25;110604;1258;19973;-48
2022/03/21 01:45:00;;;;;;;;;31.00;25.33;;;;;21.65;39.70;103477.50;110656;1258;22861;-48
2022/03/21 01:47:27;;;;;;;;;27.33;25.00;;;;;21.65;39.71;103472.94;110692;1258;18809;-48
2022/03/21 01:49:55;;;;;;;;;30.00;26.33;;;;;21.65;39.68;103467.30;110640;1258;19542;-44
2022/03/21 01:52:22;;;;;;;;;28.33;25.67;;;;;21.65;39.46;103470.73;110675;1258;18747;-49
2022/03/21 01:57:34;;;;;;;;;34.00;28.50;;;;;21.65;39.54;103466.91;110648;1258;25911;-48
2022/03/21 02:00:01;;;;;;;;;31.67;28.33;;;;;21.65;39.49;103467.48;110642;1258;20791;-47
2022/03/21 02:02:29;;;;;;;;;28.67;25.33;;;;;21.66;39.34;103467.60;110618;1258;19451;-48
2022/03/21 02:04:56;;;;;;;;;32.50;27.50;;;;;21.65;39.56;103464.80;110716;1258;19529;-50
2022/03/21 02:07:25;;;;;;;;;24.00;22.00;;;;;21.65;39.53;103464.96;110695;1258;19630;-48
2022/03/21 02:09:52;;;;;;;;;29.00;28.00;;;;;21.64;39.42;103466.96;110631;1258;18911;-50
2022/03/21 02:12:19;;;;;;;;;30.00;26.00;;;;;21.64;39.46;103464.43;110649;1258;19771;-49
2022/03/21 02:14:47;;;;;;;;;32.67;26.33;;;;;21.64;39.50;103464.67;110601;1258;18799;-48
2022/03/21 02:17:15;;;;;;;;;29.67;26.67;;;;;21.64;39.39;103463.89;110604;1258;18901;-48
2022/03/21 02:19:43;;;;;;;;;31.00;26.50;;;;;21.64;39.37;103462.98;110632;1258;19519;-47
2022/03/21 02:22:10;;;;;;;;;29.67;26.00;;;;;21.64;39.60;103468.44;110679;1258;18876;-49
2022/03/21 02:24:37;;;;;;;;;30.00;28.33;;;;;21.63;39.39;103466.14;110661;1258;18994;-50
2022/03/21 02:27:04;;;;;;;;;28.00;25.67;;;;;21.63;39.26;103468.73;110610;1258;19582;-48
2022/03/21 02:29:32;;;;;;;;;27.67;25.67;;;;;21.62;39.41;103471.15;110607;1258;21059;-47
2022/03/21 02:31:59;;;;;;;;;24.00;21.67;;;;;21.63;39.29;103469.66;110743;1258;18746;-48
2022/03/21 02:34:26;;;;;;;;;33.67;28.67;;;;;21.62;39.38;103470.02;110652;1258;22239;-51
2022/03/21 02:36:53;;;;;;;;;26.67;22.67;;;;;21.63;39.34;103471.48;110622;1258;18812;-47
2022/03/21 02:39:21;;;;;;;;;30.00;27.67;;;;;21.63;39.16;103469.63;110604;1258;19156;-48
2022/03/21 02:41:49;;;;;;;;;34.00;30.00;;;;;21.63;39.09;103468.36;110602;1258;21028;-48
2022/03/21 02:44:16;;;;;;;;;28.67;25.33;;;;;21.61;39.37;103466.45;110606;1258;21513;-48
2022/03/21 02:46:43;;;;;;;;;30.00;29.33;;;;;21.60;39.14;103467.82;110583;1258;19294;-48
2022/03/21 02:49:10;;;;;;;;;30.67;27.33;;;;;21.61;39.16;103472.89;110663;1258;20141;-49
2022/03/21 02:51:38;;;;;;;;;33.33;30.33;;;;;21.61;39.09;103469.41;110679;1258;18818;-50
2022/03/21 02:54:05;;;;;;;;;28.67;25.33;;;;;21.61;39.12;103469.93;110555;1258;18848;-51
2022/03/21 02:56:32;;;;;;;;;28.00;26.67;;;;;21.62;39.03;103468.23;110616;1258;19550;-50
2022/03/21 02:58:59;;;;;;;;;27.33;24.33;;;;;21.62;39.11;103467.15;110566;1258;18694;-48
2022/03/21 03:01:27;;;;;;;;;27.33;25.00;;;;;21.62;39.07;103466.95;110660;1258;19148;-47
2022/03/21 03:03:54;;;;;;;;;33.50;28.50;;;;;21.62;39.15;103470.43;110740;1258;22768;-49
2022/03/21 03:06:21;;;;;;;;;33.00;30.00;;;;;21.63;39.01;103472.59;110580;1258;22932;-46
2022/03/21 03:08:49;;;;;;;;;29.50;26.50;;;;;21.61;39.06;103466.68;110569;1258;18923;-48
2022/03/21 03:11:16;;;;;;;;;35.33;31.33;;;;;21.62;39.00;103468.45;110582;1258;19774;-47
2022/03/21 03:13:43;;;;;;;;;29.00;26.00;;;;;21.62;38.75;103468.42;110578;1258;21159;-49
2022/03/21 03:16:10;;;;;;;;;30.00;26.33;;;;;21.61;38.97;103471.23;110645;1258;18968;-48
2022/03/21 03:18:37;;;;;;;;;32.00;30.00;;;;;21.61;38.80;103472.14;110639;1258;22830;-48
2022/03/21 03:21:05;;;;;;;;;29.00;28.00;;;;;21.59;38.84;103465.36;110586;1258;19067;-48
2022/03/21 03:23:32;;;;;;;;;32.67;28.00;;;;;21.60;38.80;103468.60;110569;1258;18921;-50
2022/03/21 03:25:59;;;;;;;;;31.00;28.67;;;;;21.61;38.96;103467.60;110585;1258;19711;-48
2022/03/21 03:28:27;;;;;;;;;28.33;25.67;;;;;21.60;38.89;103463.98;110657;1259;18750;-49
2022/03/21 03:30:54;;;;;;;;;31.33;27.33;;;;;21.60;38.82;103468.20;110629;1258;24245;-49
2022/03/21 03:33:21;;;;;;;;;30.00;28.00;;;;;21.60;38.69;103466.96;110624;1258;19650;-48
2022/03/21 03:35:48;;;;;;;;;34.50;29.00;;;;;21.59;38.55;103468.45;110588;1258;18710;-49
2022/03/21 03:38:16;;;;;;;;;26.33;25.00;;;;;21.59;38.56;103466.11;110596;1258;19938;-49
2022/03/21 03:40:44;;;;;;;;;29.00;28.33;;;;;21.58;38.73;103463.41;110636;1259;19510;-47
2022/03/21 03:43:11;;;;;;;;;30.33;26.67;;;;;21.58;38.62;103465.20;110794;1258;18783;-48
2022/03/21 03:45:38;;;;;;;;;35.67;28.67;;;;;21.58;38.71;103461.06;110586;1258;18879;-48
2022/03/21 03:48:05;;;;;;;;;29.67;28.67;;;;;21.58;38.74;103462.55;110596;1258;19559;-49
2022/03/21 03:50:33;;;;;;;;;28.00;25.00;;;;;21.57;38.84;103459.86;110559;1259;18784;-45
2022/03/21 03:53:00;;;;;;;;;30.00;28.50;;;;;21.56;38.63;103457.73;110596;1258;18984;-47
2022/03/21 03:55:27;;;;;;;;;38.33;31.00;;;;;21.56;38.66;103456.48;110688;1258;23252;-50
2022/03/21 03:57:55;;;;;;;;;29.67;27.67;;;;;21.56;38.52;103455.39;110762;1258;18811;-48
2022/03/21 04:00:22;;;;;;;;;29.33;29.00;;;;;21.56;38.38;103455.93;110738;1258;19015;-53
2022/03/21 04:05:35;;;;;;;;;33.67;29.00;;;;;21.56;38.41;103463.60;110716;1258;19339;-48
2022/03/21 04:08:02;;;;;;;;;29.33;24.67;;;;;21.56;38.42;103460.13;110732;1258;18938;-48
2022/03/21 04:10:30;;;;;;;;;32.33;29.00;;;;;21.56;38.42;103458.48;110761;1258;19653;-47
2022/03/21 04:12:57;;;;;;;;;35.00;26.00;;;;;21.56;38.55;103454.85;110727;1258;18717;-48
2022/03/21 04:15:24;;;;;;;;;29.00;27.33;;;;;21.55;38.19;103453.49;110654;1257;19546;-47
2022/03/21 04:17:53;;;;;;;;;29.00;28.67;;;;;21.55;38.44;103456.91;110651;1258;22573;-48
2022/03/21 04:20:23;;;;;;;;;32.00;29.67;;;;;21.55;38.36;103457.80;110604;1258;18769;-48
2022/03/21 04:22:50;;;;;;;;;32.50;31.50;;;;;21.56;38.21;103463.38;110740;1258;18919;-48
2022/03/21 04:25:18;;;;;;;;;30.33;26.33;;;;;21.56;38.33;103463.55;110787;1258;19646;-49
2022/03/21 04:27:45;;;;;;;;;32.67;28.00;;;;;21.56;38.32;103466.85;110692;1258;18739;-50
2022/03/21 04:30:12;;;;;;;;;30.67;29.00;;;;;21.56;38.15;103466.14;110728;1258;18897;-46
2022/03/21 04:32:39;;;;;;;;;31.33;25.33;;;;;21.56;38.23;103469.27;110754;1258;19523;-47
2022/03/21 04:35:06;;;;;;;;;30.00;26.00;;;;;21.56;38.22;103472.53;110732;1258;18841;-49
2022/03/21 04:37:34;;;;;;;;;31.67;28.00;;;;;21.55;38.17;103470.20;110747;1258;18811;-48
2022/03/21 04:40:01;;;;;;;;;29.00;26.67;;;;;21.55;38.00;103470.05;110778;1258;20018;-47
2022/03/21 04:42:28;;;;;;;;;28.00;24.67;;;;;21.55;37.90;103470.58;110684;1258;26900;-48
2022/03/21 04:44:56;;;;;;;;;32.00;29.67;;;;;21.55;38.07;103471.66;110701;1258;18803;-48
2022/03/21 04:47:23;;;;;;;;;29.33;26.00;;;;;21.55;37.91;103470.60;110603;1258;20801;-52
2022/03/21 04:49:50;;;;;;;;;29.00;26.00;;;;;21.54;37.84;103471.54;110600;1258;18931;-48
2022/03/21 04:52:17;;;;;;;;;31.33;28.33;;;;;21.54;37.97;103472.09;110466;1258;21341;-47
2022/03/21 04:54:45;;;;;;;;;31.67;28.00;;;;;21.54;37.88;103473.92;110522;1258;21629;-48
2022/03/21 04:57:12;;;;;;;;;31.33;27.33;;;;;21.55;38.13;103470.55;110568;1258;18783;-47
2022/03/21 04:59:39;;;;;;;;;29.00;27.33;;;;;21.55;37.89;103470.57;110522;1258;18998;-48
2022/03/21 05:02:06;;;;;;;;;29.00;26.00;;;;;21.55;37.87;103469.85;110440;1258;19535;-47
2022/03/21 05:04:34;;;;;;;;;28.00;25.00;;;;;21.56;37.92;103475.07;110632;1258;18751;-48
2022/03/21 05:07:01;;;;;;;;;28.50;28.00;;;;;21.55;37.91;103480.05;110621;1258;18941;-48
2022/03/21 05:09:28;;;;;;;;;34.67;29.33;;;;;21.54;37.79;103482.11;110550;1258;19472;-48
2022/03/21 05:11:56;;;;;;;;;28.67;28.00;;;;;21.54;38.03;103479.90;110586;1258;18879;-48
2022/03/21 05:14:23;;;;;;;;;29.00;25.00;;;;;21.54;37.94;103475.78;110582;1258;18962;-48
2022/03/21 05:16:50;;;;;;;;;29.00;28.33;;;;;21.55;38.03;103480.95;110430;1258;22377;-48
2022/03/21 05:19:17;;;;;;;;;33.00;29.00;;;;;21.55;38.01;103476.97;110569;1258;18669;-48
2022/03/21 05:21:45;;;;;;;;;30.33;26.00;;;;;21.54;37.91;103479.02;110601;1258;18803;-48
2022/03/21 05:32:26;;;;;;;;;33.33;29.33;;;;;21.63;37.86;103490.91;110470;1258;19632;-50
2022/03/21 05:37:39;;;;;;;;;29.00;26.00;;;;;21.70;37.90;103488.55;110439;1258;22669;-48
2022/03/21 05:42:52;;;;;;;;;32.67;28.67;;;;;21.76;37.98;103489.55;110424;1258;22881;-48
2022/03/21 05:45:21;;;;;;;;;32.67;28.67;;;;;21.77;37.86;103488.23;110350;1258;20230;-50
2022/03/21 05:50:33;;;;;;;;;32.00;29.00;;;;;21.79;37.95;103486.55;110430;1261;18971;-50
2022/03/21 05:53:00;;;;;;;;;31.00;28.50;;;;;21.82;37.74;103492.38;110418;1261;19181;-49
2022/03/21 05:55:29;;;;;;;;;32.00;26.00;;;;;21.83;37.92;103492.64;110495;1261;21063;-51
2022/03/21 05:57:56;;;;;;;;;33.00;29.33;;;;;21.86;37.57;103491.17;110466;1260;18863;-49
2022/03/21 06:00:23;;;;;;;;;26.00;26.00;;;;;21.87;37.58;103489.20;110450;1261;18798;-49
2022/03/21 06:02:51;;;;;;;;;39.00;30.00;;;;;21.89;37.51;103491.29;110454;1261;19776;-50
2022/03/21 06:05:18;;;;;;;;;34.00;27.00;;;;;21.91;37.61;103495.33;110387;1260;18860;-48
2022/03/21 06:07:46;;;;;;;;;33.33;26.67;;;;;21.92;37.47;103494.48;110471;1261;18848;-49
2022/03/21 06:10:13;;;;;;;;;34.00;28.50;;;;;21.94;37.64;103497.08;110445;1261;19534;-50
2022/03/21 06:12:41;;;;;;;;;27.33;27.33;;;;;21.95;37.74;103494.44;110442;1260;19078;-53
2022/03/21 06:15:08;;;;;;;;;29.00;26.00;;;;;21.97;37.55;103497.36;110425;1261;21820;-49
2022/03/21 06:17:35;;;;;;;;;31.50;26.50;;;;;21.99;37.56;103497.05;110250;1261;22752;-48
2022/03/21 06:20:02;;;;;;;;;30.00;28.67;;;;;22.02;37.53;103499.35;110297;1259;18786;-49
2022/03/21 06:22:29;;;;;;;;;29.00;27.00;;;;;22.07;37.65;103502.25;110446;1261;22672;-51
2022/03/21 06:24:57;;;;;;;;;34.00;29.33;;;;;22.12;37.60;103499.69;110436;1260;19653;-50
2022/03/21 06:27:24;;;;;;;;;27.50;25.00;;;;;22.20;37.98;103502.74;110420;1261;18769;-49
2022/03/21 06:29:51;;;;;;;;;27.50;27.00;;;;;22.24;38.04;103502.77;110399;1261;19505;-49
2022/03/21 06:32:19;;;;;;;;;26.00;25.33;;;;;22.26;38.22;103508.98;110425;1260;20210;-49
2022/03/21 06:34:47;;;;;;;;;32.50;27.00;;;;;22.31;38.66;103505.85;110422;1261;18879;-48
2022/03/21 06:37:14;;;;;;;;;30.00;26.00;;;;;22.38;38.88;103503.28;110487;1261;18927;-51
2022/03/21 06:39:42;;;;;;;;;30.00;26.00;;;;;22.43;38.95;103506.92;110358;1260;19875;-47
2022/03/21 06:42:11;;;;;;;;;31.67;30.00;;;;;22.46;39.25;103509.08;110373;1261;19588;-49
2022/03/21 06:44:38;;;;;;;;;28.00;27.00;;;;;22.50;39.24;103508.75;110363;1261;19146;-48
2022/03/21 06:47:05;;;;;;;;;34.00;28.00;;;;;22.50;39.43;103509.33;110483;1259;19627;-50
2022/03/21 06:49:33;;;;;;;;;28.67;27.00;;;;;22.51;39.33;103511.08;110608;1258;18981;-51
2022/03/21 06:52:02;;;;;;;;;26.50;24.50;;;;;22.52;39.55;103517.86;110596;1258;18860;-49
2022/03/21 06:54:30;;;;;;;;;29.00;27.00;;;;;22.54;39.48;103519.02;110520;1258;20174;-49
2022/03/21 06:56:57;;;;;;;;;27.00;24.00;;;;;22.54;39.33;103524.11;110443;1258;19363;-48
2022/03/21 06:59:24;;;;;;;;;31.33;28.00;;;;;22.54;39.44;103519.71;110624;1258;18888;-49
2022/03/21 07:01:52;;;;;;;;;29.00;26.50;;;;;22.59;39.30;103520.58;110611;1258;19386;-50
2022/03/21 07:04:19;;;;;;;;;30.33;27.00;;;;;22.58;39.32;103522.65;110675;1258;19636;-50
2022/03/21 07:06:46;;;;;;;;;32.00;26.67;;;;;22.58;39.16;103522.86;110615;1258;18845;-50
2022/03/21 07:09:13;;;;;;;;;30.00;27.00;;;;;22.57;39.01;103526.25;110633;1258;19628;-52
2022/03/21 07:11:40;;;;;;;;;30.33;28.00;;;;;22.57;39.02;103526.08;110641;1258;18752;-50
2022/03/21 07:14:08;;;;;;;;;32.00;30.00;;;;;22.57;38.87;103524.72;110609;1258;18869;-49
2022/03/21 07:16:35;;;;;;;;;29.67;25.00;;;;;22.56;39.09;103527.20;110634;1258;19618;-50
2022/03/21 07:19:03;;;;;;;;;28.67;27.33;;;;;22.56;38.99;103522.82;110469;1258;18986;-49
2022/03/21 07:21:30;;;;;;;;;28.00;26.50;;;;;22.56;38.86;103523.54;110556;1258;18878;-49
2022/03/21 07:23:57;;;;;;;;;26.50;25.00;;;;;22.56;38.71;103525.38;110566;1258;19802;-48
2022/03/21 07:26:25;;;;;;;;;28.67;23.67;;;;;22.56;38.76;103528.14;110633;1258;22123;-50
2022/03/21 07:28:52;;;;;;;;;30.33;26.33;;;;;22.57;38.55;103531.46;110625;1258;18955;-50
2022/03/21 07:31:19;;;;;;;;;26.33;26.00;;;;;22.60;38.59;103527.65;110659;1258;20192;-49
2022/03/21 07:33:47;;;;;;;;;28.33;27.00;;;;;22.60;38.81;103530.14;110574;1259;18691;-50
2022/03/21 07:36:14;;;;;;;;;29.00;26.00;;;;;22.63;38.77;103531.58;110619;1258;20314;-48
2022/03/21 07:38:41;;;;;;;;;29.00;25.00;;;;;22.68;38.65;103532.48;110572;1258;19569;-49
2022/03/21 07:41:08;;;;;;;;;27.67;24.33;;;;;22.73;38.81;103536.25;110618;1258;18889;-49
2022/03/21 07:43:36;;;;;;;;;21.67;21.33;;;;;22.76;38.74;103539.14;110740;1258;18873;-49
2022/03/21 07:48:48;;;;;;;;;27.00;22.50;;;;;22.86;38.69;103535.20;110514;1261;19050;-50
2022/03/21 07:51:15;;;;;;;;;29.00;28.00;;;;;22.93;38.90;103534.67;110413;1261;22239;-50
2022/03/21 07:53:43;;;;;;;;;27.00;23.00;;;;;22.99;38.92;103536.04;110331;1261;19493;-48
2022/03/21 07:56:10;;;;;;;;;29.00;28.00;;;;;23.01;39.09;103544.45;110400;1260;18761;-49
2022/03/21 07:58:37;;;;;;;;;50.00;42.00;;;;;22.92;38.85;103537.65;110408;1258;22682;-51
2022/03/21 08:01:06;;;;;;;;;42.00;37.00;;;;;22.71;35.90;103548.84;110435;1260;19630;-47
2022/03/21 08:03:33;;;;;;;;;46.33;39.00;;;;;22.60;35.45;103546.57;110403;1260;18777;-48
2022/03/21 08:06:00;;;;;;;;;48.33;39.67;;;;;22.55;34.98;103548.48;110396;1260;18982;-50
2022/03/21 08:08:28;;;;;;;;;41.67;38.67;;;;;22.54;35.34;103551.95;110445;1261;23131;-50
2022/03/21 08:10:56;;;;;;;;;45.00;39.00;;;;;22.53;35.76;103544.42;110408;1260;18782;-48
2022/03/21 08:13:25;;;;;;;;;42.00;38.67;;;;;22.53;35.49;103543.67;110399;1261;19186;-51
2022/03/21 08:15:52;;;;;;;;;43.00;37.00;;;;;22.59;35.07;103543.38;110400;1260;19490;-49
2022/03/21 08:18:20;;;;;;;;;38.67;34.33;;;;;22.70;34.41;103543.59;110425;1259;18751;-52
2022/03/21 08:20:47;;;;;;;;;36.67;35.00;;;;;22.82;34.63;103544.46;110422;1261;21884;-50
2022/03/21 08:23:14;;;;;;;;;34.67;31.00;;;;;22.90;35.10;103537.48;110437;1261;20049;-50
2022/03/21 08:25:43;;;;;;;;;33.50;31.00;;;;;22.94;35.89;103537.71;110441;1261;18988;-49
2022/03/21 08:28:10;;;;;;;;;35.50;32.50;;;;;22.93;36.30;103540.11;110429;1259;22780;-51
2022/03/21 08:30:37;;;;;;;;;35.33;30.00;;;;;22.93;36.63;103536.88;110365;1260;19551;-50
2022/03/21 08:33:06;;;;;;;;;37.33;31.00;;;;;23.00;37.36;103538.31;110372;1261;18715;-49
2022/03/21 08:35:33;;;;;;;;;32.00;27.00;;;;;23.00;37.39;103536.66;110404;1260;19317;-50
2022/03/21 08:38:00;;;;;;;;;33.00;31.00;;;;;23.01;37.49;103534.05;110418;1260;19520;-48
2022/03/21 08:40:28;;;;;;;;;31.33;27.33;;;;;23.06;37.78;103531.59;110407;1259;18885;-48
2022/03/21 08:42:55;;;;;;;;;36.33;31.00;;;;;23.13;38.11;103529.77;110355;1258;18738;-48
2022/03/21 08:45:22;;;;;;;;;31.00;28.33;;;;;23.11;38.13;103529.52;110402;1258;19518;-49
2022/03/21 08:47:50;;;;;;;;;142.25;108.50;;;;;23.09;38.05;103523.70;110546;1258;19108;-50
2022/03/21 08:50:17;;;;;;;;;161.25;112.50;;;;;23.07;38.18;103521.29;110576;1258;19211;-50
2022/03/21 08:52:44;;;;;;;;;192.00;147.00;;;;;23.04;38.03;103522.34;110611;1258;19479;-50
2022/03/21 08:55:12;;;;;;;;;218.00;166.25;;;;;23.02;38.23;103524.64;110584;1258;19111;-51
2022/03/21 08:57:39;;;;;;;;;243.67;178.67;;;;;23.02;38.32;103524.63;110508;1258;24121;-48
2022/03/21 09:00:06;;;;;;;;;203.75;159.25;;;;;23.09;38.66;103523.50;110532;1258;19717;-50
2022/03/21 09:02:34;;;;;;;;;180.50;139.50;;;;;23.13;38.90;103521.73;110566;1258;19067;-48
2022/03/21 09:05:04;;;;;;;;;170.00;134.67;;;;;23.10;38.93;103520.54;110575;1258;18985;-50
2022/03/21 09:07:31;;;;;;;;;176.75;125.50;;;;;23.09;38.99;103518.17;110631;1258;19627;-49
2022/03/21 09:09:58;;;;;;;;;162.67;120.33;;;;;23.08;39.27;103516.31;110574;1258;19093;-51
2022/03/21 09:12:26;;;;;;;;;143.00;110.75;;;;;23.06;38.99;103513.92;110570;1258;19366;-50
2022/03/21 09:14:53;;;;;;;;;156.75;110.50;;;;;23.04;39.05;103512.78;110575;1258;19560;-49
2022/03/21 09:17:20;;;;;;;;;132.75;103.50;;;;;23.01;38.62;103511.41;110548;1258;19157;-48
2022/03/21 09:19:47;;;;;;;;;102.33;74.33;;;;;22.85;36.98;103506.15;110637;1258;21640;-50
2022/03/21 09:22:14;;;;;;;;;97.33;72.67;;;;;22.57;34.62;103516.01;110526;1258;19457;-49
2022/03/21 09:24:42;;;;;;;;;84.33;63.00;;;;;22.28;33.57;103503.40;110498;1258;19171;-50
2022/03/21 09:27:10;;;;;;;;;82.50;60.00;;;;;22.22;32.08;103506.10;110473;1258;18825;-48
2022/03/21 09:29:38;;;;;;;;;78.00;58.00;;;;;22.20;31.27;103502.20;110427;1258;19398;-49
2022/03/21 09:32:06;;;;;;;;;71.00;53.00;;;;;22.17;30.70;103500.27;110437;1258;22247;-49
2022/03/21 09:34:39;;;;;;;;;67.33;53.33;;;;;22.08;29.77;103500.95;110670;1258;19114;-49
2022/03/21 09:37:07;;;;;;;;;66.50;48.00;;;;;22.10;29.19;103496.06;110612;1258;19720;-49
2022/03/21 09:39:34;;;;;;;;;65.00;49.00;;;;;22.12;28.64;103498.59;110559;1258;18934;-48
2022/03/21 09:42:01;;;;;;;;;57.00;43.50;;;;;22.16;28.25;103496.13;110593;1258;19135;-49
2022/03/21 09:44:29;;;;;;;;;61.67;45.33;;;;;22.13;27.72;103495.27;110668;1258;20795;-50
2022/03/21 09:46:56;;;;;;;;;50.67;43.00;;;;;22.00;27.08;103495.54;110545;1258;18752;-49
2022/03/21 09:49:23;;;;;;;;;49.67;39.33;;;;;21.74;26.85;103486.58;110722;1257;18953;-48
2022/03/21 09:51:50;;;;;;;;;48.00;39.33;;;;;21.78;26.47;103489.02;110567;1258;22842;-50
2022/03/21 09:54:18;;;;;;;;;44.67;39.00;;;;;21.67;24.29;103485.52;110521;1258;20047;-48
2022/03/21 09:56:45;;;;;;;;;45.33;38.67;;;;;21.42;22.98;103479.23;110411;1258;18729;-50
2022/03/21 09:59:12;;;;;;;;;42.00;37.00;;;;;21.06;21.94;103476.27;110294;1258;19553;-51
2022/03/21 10:01:41;;;;;;;;;41.00;36.00;;;;;20.94;21.53;103471.08;110406;1258;21994;-50
2022/03/21 10:04:09;;;;;;;;;48.67;38.33;;;;;21.12;21.63;103464.30;110415;1258;19214;-48
2022/03/21 10:06:36;;;;;;;;;42.00;38.00;;;;;21.30;21.95;103459.17;110391;1258;21318;-48
2022/03/21 10:09:03;;;;;;;;;36.00;33.00;;;;;21.47;21.89;103457.19;110334;1258;18695;-47
2022/03/21 10:11:30;;;;;;;;;40.67;34.33;;;;;21.59;21.49;103456.42;110505;1258;18938;-50
2022/03/21 10:13:57;;;;;;;;;38.00;35.33;;;;;21.59;20.87;103454.45;110651;1258;19578;-49
2022/03/21 10:16:25;;;;;;;;;34.00;33.00;;;;;21.57;21.03;103449.48;110573;1258;19638;-49
2022/03/21 10:18:52;;;;;;;;;33.67;31.00;;;;;21.58;21.04;103447.77;110564;1258;18940;-50
2022/03/21 10:21:19;;;;;;;;;36.00;29.67;;;;;21.65;21.00;103446.00;110569;1258;19581;-49
2022/03/21 10:23:46;;;;;;;;;31.00;30.00;;;;;21.70;21.32;103440.85;110552;1258;18727;-47
2022/03/21 10:26:14;;;;;;;;;30.00;27.00;;;;;21.69;20.58;103435.73;110516;1258;19606;-50
2022/03/21 10:28:42;;;;;;;;;33.67;27.67;;;;;21.65;20.36;103446.00;110608;1258;19488;-49
2022/03/21 10:31:10;;;;;;;;;33.00;28.00;;;;;21.45;19.43;103443.11;110602;1258;19309;-52
2022/03/21 10:33:37;;;;;;;;;30.33;28.67;;;;;21.34;19.41;103435.98;110550;1259;19145;-50
2022/03/21 10:36:05;;;;;;;;;25.67;25.00;;;;;21.27;19.27;103432.86;110521;1258;19532;-48
2022/03/21 10:38:32;;;;;;;;;33.00;28.50;;;;;21.22;19.38;103430.66;110483;1259;23996;-49
2022/03/21 10:40:59;;;;;;;;;34.00;29.00;;;;;21.30;19.53;103429.19;110488;1258;18799;-50
2022/03/21 10:43:26;;;;;;;;;32.00;27.00;;;;;21.42;19.81;103428.67;110611;1258;19510;-49
2022/03/21 10:45:54;;;;;;;;;29.00;25.33;;;;;21.46;20.02;103421.40;110576;1258;18905;-49
2022/03/21 10:48:22;;;;;;;;;35.67;31.33;;;;;21.46;19.61;103429.23;110609;1258;18895;-50
2022/03/21 10:50:49;;;;;;;;;32.67;27.67;;;;;21.39;19.55;103424.89;110535;1259;19806;-52
2022/03/21 10:53:16;;;;;;;;;34.33;27.33;;;;;21.34;19.55;103419.75;110565;1258;18866;-50
2022/03/21 10:55:44;;;;;;;;;32.33;29.00;;;;;21.22;19.21;103416.88;110594;1258;18938;-50
2022/03/21 10:58:11;;;;;;;;;30.67;26.33;;;;;21.10;19.25;103418.31;110631;1258;22360;-49
2022/03/21 11:00:38;;;;;;;;;29.67;28.00;;;;;21.02;19.29;103412.71;110541;1258;22827;-50
2022/03/21 11:03:06;;;;;;;;;29.00;26.00;;;;;21.01;19.26;103412.96;110468;1258;18837;-48
2022/03/21 11:05:33;;;;;;;;;29.33;27.33;;;;;20.85;19.12;103400.53;110510;1258;19669;-49
2022/03/21 11:08:01;;;;;;;;;34.00;32.00;;;;;20.91;19.38;103401.57;110484;1258;18675;-47
2022/03/21 11:10:28;;;;;;;;;30.00;28.00;;;;;20.97;18.97;103399.27;110587;1258;18756;-48
2022/03/21 11:12:55;;;;;;;;;37.67;32.00;;;;;20.86;18.98;103395.92;110548;1258;21050;-54
2022/03/21 11:15:22;;;;;;;;;32.33;30.00;;;;;20.84;19.21;103394.95;110533;1259;18727;-49
2022/03/21 11:17:50;;;;;;;;;36.00;32.00;;;;;20.87;19.04;103389.61;110548;1259;18928;-49
2022/03/21 11:20:17;;;;;;;;;29.50;28.50;;;;;20.95;19.05;103387.23;110564;1258;19809;-49
2022/03/21 11:22:44;;;;;;;;;33.00;28.00;;;;;20.99;19.07;103389.81;110544;1258;22926;-49
2022/03/21 11:25:12;;;;;;;;;32.00;31.00;;;;;20.86;18.88;103386.64;110667;1258;22807;-50
2022/03/21 11:27:39;;;;;;;;;32.00;31.00;;;;;20.78;18.66;103388.14;110577;1258;19813;-49